createdAt,value
2023-04-18T00:01:44.615Z,78.75
2023-04-18T00:04:11.904Z,79.08
2023-04-18T00:06:39.192Z,79.12
2023-04-18T00:09:05.828Z,79.53
2023-04-18T00:11:32.535Z,80.17
2023-04-18T00:13:59.445Z,80.17
2023-04-18T00:16:27.210Z,80.44
2023-04-18T00:18:54.244Z,80.67
2023-04-18T00:21:22.541Z,80.48
2023-04-18T00:23:49.219Z,81.14
2023-04-18T00:26:15.862Z,80.78
2023-04-18T00:28:42.600Z,80.85
2023-04-18T00:31:09.302Z,80.38
2023-04-18T00:33:36.020Z,80.58
2023-04-18T00:36:02.530Z,80.51
2023-04-18T00:38:29.075Z,80.27
2023-04-18T00:40:55.763Z,80.37
2023-04-18T00:43:24.096Z,80.29
2023-04-18T00:45:50.692Z,80.97
2023-04-18T00:48:18.402Z,81.00
2023-04-18T00:50:45.426Z,81.55
2023-04-18T00:53:12.063Z,81.80
2023-04-18T00:55:39.166Z,82.27
2023-04-18T00:58:06.347Z,82.55
2023-04-18T01:00:35.729Z,83.22
2023-04-18T01:03:02.693Z,83.12
2023-04-18T01:05:29.839Z,83.30
2023-04-18T01:08:00.859Z,83.25
2023-04-18T01:10:28.483Z,83.71
2023-04-18T01:13:11.762Z,83.94
2023-04-18T01:15:40.779Z,83.50
2023-04-18T01:18:08.902Z,83.92
2023-04-18T01:20:38.140Z,84.23
2023-04-18T01:23:05.695Z,84.23
2023-04-18T01:25:33.029Z,84.40
2023-04-18T01:28:00.160Z,84.79
2023-04-18T01:30:26.869Z,85.11
2023-04-18T01:32:53.481Z,84.90
2023-04-18T01:35:20.423Z,84.99
2023-04-18T01:37:47.420Z,85.53
2023-04-18T01:40:14.358Z,85.56
2023-04-18T01:42:40.984Z,86.06
2023-04-18T01:45:08.338Z,86.18
2023-04-18T01:47:35.246Z,86.57
2023-04-18T01:50:02.548Z,86.79
2023-04-18T01:52:29.058Z,86.84
2023-04-18T01:54:55.980Z,87.35
2023-04-18T01:57:22.523Z,87.69
2023-04-18T01:59:49.052Z,88.11
2023-04-18T02:02:15.794Z,88.42
2023-04-18T02:04:42.658Z,89.11
2023-04-18T02:07:09.184Z,89.70
2023-04-18T02:09:36.140Z,90.08
2023-04-18T02:12:03.180Z,90.74
2023-04-18T02:14:31.074Z,90.77
2023-04-18T02:16:58.911Z,91.09
2023-04-18T02:19:25.743Z,91.26
2023-04-18T02:21:52.240Z,92.50
2023-04-18T02:24:19.054Z,92.54
2023-04-18T02:26:46.013Z,92.61
2023-04-18T02:29:12.837Z,93.37
2023-04-18T02:31:40.905Z,93.62
2023-04-18T02:34:08.368Z,93.78
2023-04-18T02:36:34.935Z,94.03
2023-04-18T02:39:01.585Z,94.36
2023-04-18T02:41:28.392Z,94.58
2023-04-18T02:43:55.157Z,94.78
2023-04-18T02:46:22.012Z,94.68
2023-04-18T02:48:48.814Z,94.43
2023-04-18T02:51:15.706Z,94.72
2023-04-18T02:53:42.405Z,94.80
2023-04-18T02:56:09.228Z,94.71
2023-04-18T02:58:36.404Z,94.36
2023-04-18T03:01:03.274Z,95.09
2023-04-18T03:03:30.201Z,94.88
2023-04-18T03:05:57.103Z,95.02
2023-04-18T03:08:23.958Z,95.26
2023-04-18T03:10:50.532Z,95.25
2023-04-18T03:13:17.222Z,95.11
2023-04-18T03:15:43.899Z,95.63
2023-04-18T03:18:12.358Z,95.62
2023-04-18T03:20:39.103Z,95.68
2023-04-18T03:23:05.761Z,95.44
2023-04-18T03:25:32.564Z,95.47
2023-04-18T03:27:59.304Z,95.43
2023-04-18T03:30:26.148Z,95.57
2023-04-18T03:32:53.719Z,95.15
2023-04-18T03:35:20.819Z,95.24
2023-04-18T03:37:47.491Z,94.93
2023-04-18T03:40:14.124Z,95.12
2023-04-18T03:42:40.817Z,95.14
2023-04-18T03:45:08.055Z,95.07
2023-04-18T03:47:34.802Z,95.05
2023-04-18T03:50:01.504Z,95.21
2023-04-18T03:52:29.729Z,95.15
2023-04-18T03:54:56.485Z,95.00
2023-04-18T03:57:22.933Z,94.86
2023-04-18T03:59:49.601Z,94.82
2023-04-18T04:02:16.772Z,94.58
2023-04-18T04:04:43.670Z,94.41
2023-04-18T04:07:10.810Z,94.59
2023-04-18T04:09:37.443Z,94.25
2023-04-18T04:12:04.294Z,94.25
2023-04-18T04:14:30.896Z,94.25
2023-04-18T04:16:57.803Z,94.14
2023-04-18T04:19:24.896Z,94.15
2023-04-18T04:21:51.611Z,93.84
2023-04-18T04:24:20.440Z,93.72
2023-04-18T04:26:48.656Z,93.62
2023-04-18T04:29:16.363Z,93.65
2023-04-18T04:31:43.127Z,93.68
2023-04-18T04:34:09.803Z,93.80
2023-04-18T04:36:36.784Z,93.73
2023-04-18T04:39:04.227Z,93.48
2023-04-18T04:41:31.597Z,93.48
2023-04-18T04:43:59.564Z,93.32
2023-04-18T04:46:30.246Z,93.20
2023-04-18T04:48:57.425Z,92.96
2023-04-18T04:51:24.826Z,92.73
2023-04-18T04:53:51.704Z,92.61
2023-04-18T04:56:21.481Z,92.20
2023-04-18T04:58:48.319Z,92.30
2023-04-18T05:01:16.722Z,92.06
2023-04-18T05:03:43.945Z,91.95
2023-04-18T05:06:10.697Z,91.79
2023-04-18T05:08:37.346Z,91.61
2023-04-18T05:11:04.072Z,91.49
2023-04-18T05:13:30.527Z,91.24
2023-04-18T05:15:59.240Z,91.09
2023-04-18T05:18:26.049Z,91.01
2023-04-18T05:20:52.868Z,90.79
2023-04-18T05:23:19.750Z,90.60
2023-04-18T05:25:46.505Z,90.74
2023-04-18T05:28:13.315Z,90.27
2023-04-18T05:30:40.283Z,90.43
2023-04-18T05:33:07.390Z,90.36
2023-04-18T05:35:34.263Z,90.12
2023-04-18T05:38:00.918Z,89.92
2023-04-18T05:40:28.220Z,89.50
2023-04-18T05:42:54.857Z,89.28
2023-04-18T05:45:21.548Z,88.98
2023-04-18T05:47:48.545Z,88.82
2023-04-18T05:50:15.406Z,88.47
2023-04-18T05:52:41.841Z,88.24
2023-04-18T05:55:09.293Z,88.00
2023-04-18T05:57:36.208Z,88.02
2023-04-18T06:00:06.753Z,87.86
2023-04-18T06:02:33.509Z,87.93
2023-04-18T06:05:01.400Z,87.69
2023-04-18T06:07:28.456Z,87.61
2023-04-18T06:09:56.597Z,87.47
2023-04-18T06:12:23.336Z,87.53
2023-04-18T06:14:50.925Z,87.26
2023-04-18T06:17:17.712Z,87.84
2023-04-18T06:19:44.680Z,87.55
2023-04-18T06:22:11.384Z,87.54
2023-04-18T06:24:38.477Z,87.68
2023-04-18T06:27:05.665Z,87.38
2023-04-18T06:29:33.250Z,87.18
2023-04-18T06:32:00.135Z,86.91
2023-04-18T06:34:26.796Z,86.85
2023-04-18T06:36:53.524Z,86.73
2023-04-18T06:39:20.448Z,86.40
2023-04-18T06:41:48.488Z,85.93
2023-04-18T06:44:15.640Z,85.68
2023-04-18T06:46:42.743Z,85.22
2023-04-18T06:49:09.982Z,85.38
2023-04-18T06:51:36.803Z,84.70
2023-04-18T06:54:03.789Z,84.14
2023-04-18T06:56:30.745Z,83.97
2023-04-18T06:58:58.173Z,83.99
2023-04-18T07:01:25.212Z,83.75
2023-04-18T07:03:52.087Z,83.34
2023-04-18T07:06:18.833Z,83.09
2023-04-18T07:08:45.508Z,83.27
2023-04-18T07:11:13.278Z,83.49
2023-04-18T07:13:40.079Z,83.04
2023-04-18T07:16:07.492Z,82.51
2023-04-18T07:18:38.040Z,82.41
2023-04-18T07:21:09.079Z,81.82
2023-04-18T07:23:36.164Z,81.38
2023-04-18T07:26:08.251Z,81.40
2023-04-18T07:28:34.858Z,80.80
2023-04-18T07:31:03.022Z,80.32
2023-04-18T07:33:33.530Z,80.52
2023-04-18T07:36:01.528Z,80.94
2023-04-18T07:38:28.529Z,81.07
2023-04-18T07:40:59.158Z,80.91
2023-04-18T07:43:26.358Z,81.11
2023-04-18T07:45:53.388Z,80.92
2023-04-18T07:48:25.084Z,80.89
2023-04-18T07:50:52.053Z,80.60
2023-04-18T07:53:18.878Z,80.35
2023-04-18T07:55:46.513Z,79.53
2023-04-18T07:58:13.708Z,79.49
2023-04-18T08:00:42.522Z,79.44
2023-04-18T08:03:13.059Z,78.76
2023-04-18T08:05:40.539Z,78.76
2023-04-18T08:08:08.906Z,78.11
2023-04-18T08:10:35.896Z,77.83
2023-04-18T08:13:03.374Z,77.55
2023-04-18T08:15:32.265Z,76.11
2023-04-18T08:17:59.875Z,74.91
2023-04-18T08:20:26.745Z,73.30
2023-04-18T08:23:05.623Z,73.68
2023-04-18T08:25:33.289Z,71.24
2023-04-18T08:28:00.097Z,69.95
2023-04-18T08:30:27.028Z,69.51
2023-04-18T08:32:53.834Z,67.95
2023-04-18T08:35:20.817Z,66.76
2023-04-18T08:37:47.671Z,66.43
2023-04-18T08:40:14.618Z,65.89
2023-04-18T08:42:44.300Z,66.19
2023-04-18T08:45:13.950Z,67.01
2023-04-18T08:47:41.575Z,66.37
2023-04-18T08:50:09.705Z,66.75
2023-04-18T08:52:38.845Z,66.27
2023-04-18T08:55:06.298Z,65.28
2023-04-18T08:57:33.462Z,64.66
2023-04-18T09:00:11.114Z,64.30
2023-04-18T09:02:42.448Z,63.40
2023-04-18T09:05:16.564Z,62.67
2023-04-18T09:07:44.160Z,62.15
2023-04-18T09:10:12.460Z,62.46
2023-04-18T09:12:52.122Z,61.97
2023-04-18T09:15:23.411Z,61.51
2023-04-18T09:17:54.296Z,61.40
2023-04-18T09:20:37.559Z,61.29
2023-04-18T09:23:14.387Z,61.35
2023-04-18T09:25:48.896Z,61.31
2023-04-18T09:28:23.464Z,61.33
2023-04-18T09:30:54.217Z,60.84
2023-04-18T09:33:33.795Z,60.43
2023-04-18T09:36:37.240Z,60.42
2023-04-18T09:39:04.148Z,60.11
2023-04-18T09:41:32.520Z,59.57
2023-04-18T09:44:14.663Z,59.16
2023-04-18T09:46:44.487Z,58.10
2023-04-18T09:49:12.867Z,57.54
2023-04-18T09:51:42.032Z,57.63
2023-04-18T09:54:10.859Z,57.22
2023-04-18T09:56:40.967Z,56.16
2023-04-18T09:59:09.187Z,55.61
2023-04-18T10:01:36.537Z,54.96
2023-04-18T10:04:06.465Z,54.60
2023-04-18T10:06:41.849Z,54.96
2023-04-18T10:09:09.343Z,55.31
2023-04-18T10:11:36.441Z,55.79
2023-04-18T10:14:06.844Z,56.03
2023-04-18T10:16:34.945Z,55.57
2023-04-18T10:19:27.197Z,55.04
2023-04-18T10:22:01.472Z,55.13
2023-04-18T10:24:49.994Z,55.66
2023-04-18T10:27:17.840Z,55.91
2023-04-18T10:29:52.347Z,56.19
2023-04-18T10:32:22.115Z,55.69
2023-04-18T10:34:53.847Z,54.65
2023-04-18T10:37:20.613Z,54.60
2023-04-18T10:40:08.433Z,54.47
2023-04-18T10:42:47.323Z,55.01
2023-04-18T10:45:24.792Z,54.54
2023-04-18T10:48:11.474Z,53.79
2023-04-18T10:51:12.815Z,53.71
2023-04-18T10:53:40.548Z,52.91
2023-04-18T10:56:09.480Z,52.18
2023-04-18T10:58:36.869Z,51.88
2023-04-18T11:01:04.865Z,52.26
2023-04-18T11:03:34.803Z,51.24
2023-04-18T11:06:04.647Z,50.90
2023-04-18T11:08:31.830Z,51.45
2023-04-18T11:11:03.480Z,51.01
2023-04-18T11:13:31.935Z,50.79
2023-04-18T11:15:58.763Z,51.10
2023-04-18T11:18:25.584Z,50.69
2023-04-18T11:20:52.455Z,50.07
2023-04-18T11:23:25.463Z,50.19
2023-04-18T11:25:56.197Z,49.77
2023-04-18T11:28:24.917Z,49.92
2023-04-18T11:30:51.634Z,50.26
2023-04-18T11:33:18.321Z,50.78
2023-04-18T11:35:46.028Z,50.54
2023-04-18T11:38:14.489Z,50.36
2023-04-18T11:40:50.815Z,50.02
2023-04-18T11:43:22.904Z,49.16
2023-04-18T11:45:56.878Z,48.31
2023-04-18T11:48:24.130Z,47.37
2023-04-18T11:50:51.085Z,47.23
2023-04-18T11:53:37.825Z,47.65
2023-04-18T11:56:05.733Z,47.67
2023-04-18T11:58:33.841Z,47.60
2023-04-18T12:01:16.677Z,46.67
2023-04-18T12:03:44.943Z,44.90
2023-04-18T12:06:12.095Z,44.86
2023-04-18T12:08:38.586Z,44.07
2023-04-18T12:11:05.626Z,43.45
2023-04-18T12:13:32.916Z,42.85
2023-04-18T12:16:02.485Z,42.79
2023-04-18T12:18:29.883Z,42.66
2023-04-18T12:20:58.587Z,42.90
2023-04-18T12:23:51.771Z,43.51
2023-04-18T12:26:18.530Z,42.15
2023-04-18T12:28:46.000Z,40.99
2023-04-18T12:31:12.796Z,41.88
2023-04-18T12:33:39.581Z,40.98
2023-04-18T12:36:08.226Z,40.46
2023-04-18T12:38:35.398Z,39.11
2023-04-18T12:41:01.996Z,37.15
2023-04-18T12:43:28.665Z,35.24
2023-04-18T12:45:55.159Z,33.78
2023-04-18T12:48:21.748Z,32.14
2023-04-18T12:50:48.427Z,31.94
2023-04-18T12:53:14.890Z,30.31
2023-04-18T12:55:41.486Z,29.57
2023-04-18T12:58:08.106Z,29.83
2023-04-18T13:00:34.844Z,30.40
2023-04-18T13:03:01.646Z,29.49
2023-04-18T13:05:33.124Z,28.41
2023-04-18T13:10:31.084Z,28.72
2023-04-18T13:12:57.474Z,29.55
2023-04-18T13:15:24.092Z,30.16
2023-04-18T13:17:50.933Z,29.87
2023-04-18T13:20:17.578Z,29.00
2023-04-18T13:22:45.178Z,29.02
2023-04-18T13:25:11.776Z,28.85
2023-04-18T13:27:41.721Z,28.03
2023-04-18T13:30:10.648Z,26.95
2023-04-18T13:32:39.077Z,26.33
2023-04-18T13:35:08.240Z,25.96
2023-04-18T13:37:34.790Z,25.64
2023-04-18T13:40:01.548Z,25.11
2023-04-18T13:42:28.084Z,25.31
2023-04-18T13:44:54.782Z,25.01
2023-04-18T13:47:21.419Z,25.80
2023-04-18T13:49:47.943Z,25.65
2023-04-18T13:52:14.718Z,25.98
2023-04-18T13:54:41.476Z,26.19
2023-04-18T13:57:11.604Z,26.43
2023-04-18T13:59:40.504Z,25.84
2023-04-18T14:02:09.028Z,24.82
2023-04-18T14:04:36.579Z,26.01
2023-04-18T14:07:06.142Z,26.42
2023-04-18T14:09:32.785Z,25.86
2023-04-18T14:11:59.487Z,24.76
2023-04-18T14:14:26.027Z,23.79
2023-04-18T14:16:53.748Z,23.08
2023-04-18T14:19:20.526Z,22.23
2023-04-18T14:21:47.959Z,21.67
2023-04-18T14:24:14.889Z,21.29
2023-04-18T14:26:41.631Z,20.30
2023-04-18T14:29:08.321Z,19.73
2023-04-18T14:31:35.363Z,20.62
2023-04-18T14:34:02.036Z,20.53
2023-04-18T14:36:28.724Z,19.93
2023-04-18T14:38:55.379Z,20.12
2023-04-18T14:41:22.280Z,20.05
2023-04-18T14:43:48.899Z,19.94
2023-04-18T14:46:18.695Z,19.83
2023-04-18T14:48:46.913Z,19.66
2023-04-18T14:51:15.584Z,19.36
2023-04-18T14:53:42.369Z,19.09
2023-04-18T14:56:09.381Z,20.16
2023-04-18T14:58:36.220Z,21.29
2023-04-18T15:01:04.147Z,22.48
2023-04-18T15:03:31.320Z,23.05
2023-04-18T15:05:58.328Z,23.92
2023-04-18T15:08:25.188Z,24.02
2023-04-18T15:10:52.019Z,24.90
2023-04-18T15:13:18.692Z,25.64
2023-04-18T15:15:51.744Z,25.55
2023-04-18T15:18:18.484Z,24.66
2023-04-18T15:20:45.091Z,25.32
2023-04-18T15:23:13.719Z,26.41
2023-04-18T15:25:41.669Z,27.34
2023-04-18T15:28:08.454Z,28.67
2023-04-18T15:30:35.201Z,29.58
2023-04-18T15:33:02.421Z,30.56
2023-04-18T15:35:29.254Z,32.00
2023-04-18T15:37:57.387Z,33.35
2023-04-18T15:40:24.215Z,35.20
2023-04-18T15:42:53.433Z,36.39
2023-04-18T15:45:21.269Z,37.80
2023-04-18T15:47:48.452Z,38.83
2023-04-18T15:50:16.248Z,40.45
2023-04-18T15:52:43.901Z,41.53
2023-04-18T15:55:12.968Z,42.73
2023-04-18T15:57:40.017Z,43.43
2023-04-18T16:00:15.738Z,44.34
2023-04-18T16:02:43.780Z,45.03
2023-04-18T16:05:12.262Z,45.27
2023-04-18T16:07:42.648Z,45.80
2023-04-18T16:10:10.665Z,46.14
2023-04-18T16:12:39.040Z,46.41
2023-04-18T16:15:08.260Z,46.77
2023-04-18T16:17:36.703Z,45.85
2023-04-18T16:20:03.931Z,44.33
2023-04-18T16:22:30.764Z,41.89
2023-04-18T16:24:57.617Z,41.06
2023-04-18T16:27:24.301Z,41.67
2023-04-18T16:29:50.982Z,42.28
2023-04-18T16:32:17.761Z,43.44
2023-04-18T16:34:44.574Z,44.54
2023-04-18T16:37:11.296Z,45.61
2023-04-18T16:39:38.046Z,46.24
2023-04-18T16:42:04.965Z,47.68
2023-04-18T16:44:32.548Z,48.56
2023-04-18T16:46:59.343Z,49.45
2023-04-18T16:49:26.173Z,50.29
2023-04-18T16:51:52.767Z,50.91
2023-04-18T16:54:19.463Z,52.06
2023-04-18T16:56:46.438Z,52.50
2023-04-18T16:59:13.003Z,53.29
2023-04-18T17:01:39.681Z,54.78
2023-04-18T17:04:06.737Z,55.70
2023-04-18T17:06:33.320Z,56.11
2023-04-18T17:08:59.994Z,56.99
2023-04-18T17:11:26.757Z,57.79
2023-04-18T17:13:53.703Z,58.26
2023-04-18T17:16:20.600Z,58.62
2023-04-18T17:18:47.253Z,59.17
2023-04-18T17:21:14.021Z,59.11
2023-04-18T17:23:42.473Z,58.01
2023-04-18T17:26:09.565Z,55.95
2023-04-18T17:28:36.449Z,54.75
2023-04-18T17:31:03.220Z,54.38
2023-04-18T17:33:30.318Z,54.35
2023-04-18T17:35:57.146Z,53.86
2023-04-18T17:38:23.746Z,53.13
2023-04-18T17:40:58.500Z,52.83
2023-04-18T17:43:25.113Z,53.23
2023-04-18T17:45:52.118Z,53.86
2023-04-18T17:48:18.780Z,54.63
2023-04-18T17:50:45.616Z,55.31
2023-04-18T17:53:12.326Z,55.89
2023-04-18T17:55:40.532Z,56.72
2023-04-18T17:58:07.205Z,57.08
2023-04-18T18:00:33.926Z,57.65
2023-04-18T18:03:01.614Z,58.54
2023-04-18T18:05:28.464Z,59.08
2023-04-18T18:07:56.194Z,59.70
2023-04-18T18:10:23.803Z,60.30
2023-04-18T18:12:50.860Z,60.95
2023-04-18T18:15:18.326Z,62.00
2023-04-18T18:17:44.846Z,62.27
2023-04-18T18:20:11.694Z,62.65
2023-04-18T18:22:38.295Z,63.13
2023-04-18T18:25:08.099Z,63.45
2023-04-18T18:27:34.880Z,63.82
2023-04-18T18:30:01.640Z,64.51
2023-04-18T18:32:28.452Z,64.68
2023-04-18T18:34:55.004Z,65.00
2023-04-18T18:37:23.215Z,65.40
2023-04-18T18:39:50.010Z,65.71
2023-04-18T18:42:16.675Z,65.93
2023-04-18T18:44:43.476Z,66.34
2023-04-18T18:47:10.110Z,66.92
2023-04-18T18:49:36.728Z,66.89
2023-04-18T18:52:05.307Z,67.28
2023-04-18T18:54:32.110Z,67.52
2023-04-18T18:57:00.200Z,67.80
2023-04-18T18:59:27.137Z,68.23
2023-04-18T19:01:53.655Z,68.18
2023-04-18T19:04:20.512Z,68.16
2023-04-18T19:06:47.189Z,68.16
2023-04-18T19:09:14.048Z,68.38
2023-04-18T19:11:40.795Z,68.69
2023-04-18T19:14:07.210Z,68.92
2023-04-18T19:16:35.874Z,69.03
2023-04-18T19:19:02.480Z,69.05
2023-04-18T19:21:29.320Z,69.11
2023-04-18T19:23:55.958Z,68.83
2023-04-18T19:26:23.035Z,68.45
2023-04-18T19:28:50.027Z,68.07
2023-04-18T19:31:16.713Z,67.86
2023-04-18T19:33:43.511Z,67.48
2023-04-18T19:36:10.271Z,67.38
2023-04-18T19:38:37.235Z,67.25
2023-04-18T19:41:03.789Z,66.97
2023-04-18T19:43:30.262Z,66.91
2023-04-18T19:45:56.986Z,66.89
2023-04-18T19:48:23.880Z,66.60
2023-04-18T19:50:51.144Z,66.78
2023-04-18T19:53:18.974Z,66.67
2023-04-18T19:55:46.208Z,66.63
2023-04-18T19:58:33.561Z,66.73
2023-04-18T20:01:00.552Z,66.67
2023-04-18T20:03:27.914Z,66.90
2023-04-18T20:05:54.973Z,66.82
2023-04-18T20:08:21.974Z,66.73
2023-04-18T20:10:48.555Z,66.76
2023-04-18T20:13:15.444Z,66.56
2023-04-18T20:15:42.350Z,66.44
2023-04-18T20:18:09.150Z,66.19
2023-04-18T20:20:35.822Z,66.51
2023-04-18T20:23:03.322Z,66.59
2023-04-18T20:25:30.052Z,66.51
2023-04-18T20:27:56.870Z,66.65
2023-04-18T20:30:23.593Z,66.53
2023-04-18T20:32:50.362Z,66.64
2023-04-18T20:35:17.112Z,66.50
2023-04-18T20:37:44.628Z,66.62
2023-04-18T20:40:11.661Z,66.70
2023-04-18T20:42:38.875Z,66.73
2023-04-18T20:45:11.682Z,66.56
2023-04-18T20:47:41.307Z,66.61
2023-04-18T20:50:08.773Z,66.63
2023-04-18T20:52:35.335Z,66.32
2023-04-18T20:55:01.925Z,66.27
2023-04-18T20:57:28.991Z,66.11
2023-04-18T20:59:58.486Z,65.53
2023-04-18T21:02:26.298Z,65.29
2023-04-18T21:04:53.036Z,64.84
2023-04-18T21:07:19.705Z,64.92
2023-04-18T21:09:46.423Z,64.87
2023-04-18T21:12:13.181Z,64.98
2023-04-18T21:14:40.014Z,65.07
2023-04-18T21:17:06.536Z,65.55
2023-04-18T21:19:33.198Z,65.83
2023-04-18T21:21:59.826Z,66.05
2023-04-18T21:24:26.490Z,66.62
2023-04-18T21:26:53.152Z,66.87
2023-04-18T21:29:21.596Z,67.11
2023-04-18T21:31:50.119Z,67.29
2023-04-18T21:34:16.800Z,67.53
2023-04-18T21:36:43.998Z,67.27
2023-04-18T21:39:10.482Z,67.43
2023-04-18T21:41:36.998Z,67.53
2023-04-18T21:44:03.640Z,66.96
2023-04-18T21:46:30.444Z,66.36
2023-04-18T21:48:57.127Z,65.31
2023-04-18T21:51:23.910Z,64.53
2023-04-18T21:53:50.738Z,64.15
2023-04-18T21:56:17.453Z,63.88
2023-04-18T21:58:44.007Z,62.70
2023-04-18T22:01:10.633Z,60.47
2023-04-18T22:03:37.597Z,59.16
2023-04-18T22:06:04.437Z,58.35
2023-04-18T22:08:31.015Z,57.77
2023-04-18T22:10:58.917Z,57.69
2023-04-18T22:13:30.089Z,57.82
2023-04-18T22:15:58.158Z,57.76
2023-04-18T22:18:25.366Z,57.89
2023-04-18T22:20:53.679Z,58.20
2023-04-18T22:23:20.437Z,58.53
2023-04-18T22:25:46.988Z,58.75
2023-04-18T22:28:13.890Z,59.49
2023-04-18T22:30:40.467Z,60.62
2023-04-18T22:33:07.036Z,61.61
2023-04-18T22:35:33.950Z,61.29
2023-04-18T22:38:00.497Z,60.83
2023-04-18T22:40:27.148Z,59.88
2023-04-18T22:42:54.530Z,59.46
2023-04-18T22:45:21.161Z,59.51
2023-04-18T22:47:48.112Z,59.60
2023-04-18T22:50:15.214Z,59.74
2023-04-18T22:52:41.997Z,59.91
2023-04-18T22:55:09.534Z,60.17
2023-04-18T22:57:36.168Z,60.32
2023-04-18T23:00:05.050Z,60.64
2023-04-18T23:02:31.704Z,61.00
2023-04-18T23:04:59.661Z,60.95
2023-04-18T23:07:26.310Z,59.99
2023-04-18T23:09:52.935Z,58.21
2023-04-18T23:12:19.867Z,55.41
2023-04-18T23:14:46.400Z,54.03
2023-04-18T23:17:13.036Z,53.80
2023-04-18T23:19:39.940Z,54.12
2023-04-18T23:22:06.454Z,54.31
2023-04-18T23:24:33.036Z,54.79
2023-04-18T23:26:59.686Z,54.63
2023-04-18T23:29:26.784Z,54.65
2023-04-18T23:31:53.343Z,54.82
2023-04-18T23:34:22.421Z,54.60
2023-04-18T23:36:48.910Z,53.78
2023-04-18T23:39:17.478Z,53.62
2023-04-18T23:41:44.348Z,52.35
2023-04-18T23:44:11.207Z,50.74
2023-04-18T23:46:37.860Z,49.29
2023-04-18T23:49:04.461Z,49.19
2023-04-18T23:51:31.103Z,49.76
2023-04-18T23:53:57.720Z,49.69
2023-04-18T23:56:24.399Z,50.02
2023-04-18T23:58:51.010Z,49.80
